Time;durP1;ratioP1;P1;durP2;ratioP2;P2;SDS_P1;SDS_P2;PMS_P1;PMS_P2;Temp;Humidity;BMP_temperature;BMP_pressure;BME280_temperature;BME280_humidity;BME280_pressure;Samples;Min_cycle;Max_cycle;Signal;HPM_P1;HPM_P2
2022/03/26 00:00:46;;;;;;;95.53;30.63;;;;;;;7.63;97.06;102767.50;5002575;28;20033;-77
2022/03/26 00:03:13;;;;;;;113.68;31.42;;;;;;;7.63;97.43;102774.81;4983125;28;20026;-75
2022/03/26 00:05:39;;;;;;;91.07;31.15;;;;;;;7.62;97.66;102778.47;5002001;28;20542;-75
2022/03/26 00:08:06;;;;;;;94.97;30.88;;;;;;;7.62;98.00;102773.00;4989089;28;20053;-75
2022/03/26 00:10:31;;;;;;;92.60;31.13;;;;;;;7.66;97.87;102786.50;5000763;28;20484;-75
2022/03/26 00:12:57;;;;;;;110.47;31.85;;;;;;;7.63;98.33;102774.81;4999610;28;20030;-77
2022/03/26 00:15:24;;;;;;;102.35;30.58;;;;;;;7.72;97.78;102782.63;4986332;28;20038;-75
2022/03/26 00:17:49;;;;;;;97.50;32.97;;;;;;;7.69;98.04;102778.19;4985471;28;20082;-77
2022/03/26 00:20:15;;;;;;;97.70;30.95;;;;;;;7.73;97.18;102781.69;4979698;28;20089;-76
2022/03/26 00:22:40;;;;;;;91.57;31.02;;;;;;;7.67;98.10;102769.19;4983828;28;20183;-76
2022/03/26 00:25:06;;;;;;;102.72;32.65;;;;;;;7.68;97.68;102773.69;4996204;28;20089;-76
2022/03/26 00:27:33;;;;;;;119.63;32.53;;;;;;;7.70;98.25;102768.19;5001526;28;20101;-76
2022/03/26 00:29:58;;;;;;;99.60;32.38;;;;;;;7.60;98.51;102767.63;5007505;28;20397;-76
2022/03/26 00:32:24;;;;;;;110.57;33.33;;;;;;;7.52;99.50;102770.59;5005676;28;20109;-76
2022/03/26 00:34:49;;;;;;;107.93;34.70;;;;;;;7.49;100.00;102772.56;5006613;28;20059;-76
2022/03/26 00:37:16;;;;;;;99.05;32.85;;;;;;;7.42;100.00;102776.44;4969491;28;20033;-76
2022/03/26 00:39:42;;;;;;;113.22;33.22;;;;;;;7.33;100.00;102781.28;4995886;28;21015;-76
2022/03/26 00:42:08;;;;;;;112.25;31.58;;;;;;;7.40;100.00;102776.50;4987138;28;20492;-76
2022/03/26 00:44:38;;;;;;;102.10;33.58;;;;;;;7.41;100.00;102761.03;4992688;28;20030;-76
2022/03/26 00:47:04;;;;;;;110.68;32.78;;;;;;;7.44;100.00;102772.72;5000956;28;20389;-75
2022/03/26 00:49:30;;;;;;;97.60;34.08;;;;;;;7.20;100.00;102771.75;4981195;28;20026;-75
2022/03/26 00:51:55;;;;;;;114.32;35.45;;;;;;;7.07;100.00;102773.09;4989900;28;20041;-76
2022/03/26 00:54:20;;;;;;;105.32;33.42;;;;;;;7.07;100.00;102779.44;5005911;28;20034;-75
2022/03/26 00:56:46;;;;;;;118.00;35.38;;;;;;;7.08;100.00;102767.56;5003605;28;20069;-75
2022/03/26 00:59:12;;;;;;;113.57;33.40;;;;;;;7.04;100.00;102763.19;5002954;28;20180;-76
2022/03/26 01:01:37;;;;;;;117.15;35.58;;;;;;;7.07;100.00;102756.75;5002093;28;20031;-75
2022/03/26 01:04:03;;;;;;;120.57;34.45;;;;;;;6.98;100.00;102763.38;5008323;28;20076;-76
2022/03/26 01:06:29;;;;;;;114.93;34.22;;;;;;;6.84;100.00;102763.84;5003525;28;20472;-75
2022/03/26 01:08:54;;;;;;;122.68;34.33;;;;;;;6.90;100.00;102762.75;4971813;28;20484;-76
2022/03/26 01:11:20;;;;;;;109.13;34.55;;;;;;;6.93;100.00;102762.66;5003662;28;20080;-77
2022/03/26 01:13:49;;;;;;;119.07;34.95;;;;;;;6.89;100.00;102769.16;4985808;28;21409;-77
2022/03/26 01:16:15;;;;;;;123.75;36.17;;;;;;;6.82;100.00;102757.53;4981674;28;20385;-76
2022/03/26 01:18:42;;;;;;;120.35;38.25;;;;;;;6.84;100.00;102758.41;4975373;28;20042;-76
2022/03/26 01:21:08;;;;;;;111.05;34.50;;;;;;;6.78;100.00;102756.75;5001975;28;20034;-77
2022/03/26 01:23:34;;;;;;;131.38;35.55;;;;;;;6.84;100.00;102752.97;5003983;28;20081;-76
2022/03/26 01:26:00;;;;;;;119.30;36.15;;;;;;;6.76;100.00;102752.31;4991665;28;20037;-76
2022/03/26 01:28:26;;;;;;;123.38;36.85;;;;;;;6.83;100.00;102756.63;5008965;28;20113;-76
2022/03/26 01:30:52;;;;;;;121.45;36.60;;;;;;;6.74;100.00;102749.66;4978733;28;20120;-77
2022/03/26 01:33:17;;;;;;;122.00;36.15;;;;;;;6.79;100.00;102757.69;5009966;28;20036;-76
2022/03/26 01:35:43;;;;;;;117.95;34.95;;;;;;;6.70;100.00;102758.84;5010896;28;20038;-76
2022/03/26 01:38:08;;;;;;;133.68;37.42;;;;;;;6.65;100.00;102757.22;5002575;28;20053;-76
2022/03/26 01:40:36;;;;;;;136.45;37.33;;;;;;;6.61;100.00;102760.03;5004301;28;20520;-76
2022/03/26 01:43:02;;;;;;;119.47;37.55;;;;;;;6.66;100.00;102757.19;5009903;28;20373;-76
2022/03/26 01:45:28;;;;;;;127.80;39.00;;;;;;;6.53;100.00;102766.69;4970196;28;20073;-77
2022/03/26 01:47:58;;;;;;;127.72;35.38;;;;;;;6.54;100.00;102765.72;5005894;28;21707;-77
2022/03/26 01:50:26;;;;;;;137.15;38.42;;;;;;;6.54;100.00;102769.34;5001078;28;20057;-77
2022/03/26 01:52:52;;;;;;;136.20;39.40;;;;;;;6.60;100.00;102768.25;5000332;28;20030;-77
2022/03/26 01:55:22;;;;;;;119.47;37.13;;;;;;;6.47;100.00;102775.03;5002509;28;20109;-76
2022/03/26 01:57:48;;;;;;;134.75;38.55;;;;;;;6.54;100.00;102774.78;4993487;28;20042;-77
2022/03/26 02:00:14;;;;;;;140.15;37.97;;;;;;;6.44;100.00;102773.28;4986845;28;20034;-77
2022/03/26 02:02:43;;;;;;;147.38;40.47;;;;;;;6.40;100.00;102758.88;5002340;28;20041;-76
2022/03/26 02:05:11;;;;;;;142.50;39.88;;;;;;;6.37;100.00;102768.97;5003134;28;20113;-77
2022/03/26 02:07:41;;;;;;;137.70;39.53;;;;;;;6.35;100.00;102769.00;5006182;28;20022;-77
2022/03/26 02:10:08;;;;;;;136.80;39.08;;;;;;;6.30;100.00;102760.09;4970476;28;20114;-77
2022/03/26 02:12:33;;;;;;;140.82;40.85;;;;;;;6.27;100.00;102765.63;4984280;28;20042;-77
2022/03/26 02:14:59;;;;;;;134.52;37.92;;;;;;;6.21;100.00;102768.53;4991123;28;20200;-76
2022/03/26 02:17:25;;;;;;;134.75;39.00;;;;;;;6.24;100.00;102766.59;5002227;28;20038;-76
2022/03/26 02:19:55;;;;;;;152.85;41.05;;;;;;;6.24;100.00;102765.72;4962989;28;20034;-77
2022/03/26 02:22:22;;;;;;;138.95;40.95;;;;;;;6.26;100.00;102769.28;4988351;28;20500;-77
2022/03/26 02:24:48;;;;;;;170.95;41.30;;;;;;;6.31;100.00;102769.16;4972843;28;20048;-77
2022/03/26 02:27:14;;;;;;;152.30;40.97;;;;;;;6.26;100.00;102772.00;4992199;28;20478;-77
2022/03/26 02:29:39;;;;;;;182.93;46.05;;;;;;;6.14;100.00;102759.66;4987730;28;20023;-77
2022/03/26 02:32:06;;;;;;;150.70;41.53;;;;;;;6.17;100.00;102764.13;4973104;28;20390;-77
2022/03/26 02:34:32;;;;;;;154.63;43.40;;;;;;;6.20;100.00;102762.22;4991078;28;20160;-77
2022/03/26 02:36:58;;;;;;;147.82;40.70;;;;;;;6.17;100.00;102758.69;4994850;28;20549;-77
2022/03/26 02:39:24;;;;;;;138.52;40.28;;;;;;;6.10;100.00;102766.16;4989214;28;20160;-77
2022/03/26 02:41:50;;;;;;;166.85;43.00;;;;;;;6.07;100.00;102758.97;4981184;28;20502;-77
2022/03/26 02:44:16;;;;;;;161.02;43.03;;;;;;;6.05;100.00;102759.94;5009776;28;20037;-77
2022/03/26 02:46:43;;;;;;;152.45;41.33;;;;;;;6.09;100.00;102769.78;5001591;28;20034;-77
2022/03/26 02:49:08;;;;;;;161.57;44.40;;;;;;;6.12;100.00;102764.28;5000518;28;20079;-77
2022/03/26 02:51:34;;;;;;;170.98;43.78;;;;;;;6.12;100.00;102755.22;5001327;28;20109;-77
2022/03/26 02:53:59;;;;;;;157.18;42.60;;;;;;;5.98;100.00;102761.94;4979403;28;20058;-77
2022/03/26 02:56:25;;;;;;;156.40;42.92;;;;;;;5.91;100.00;102759.44;4987395;28;20038;-77
2022/03/26 02:58:50;;;;;;;180.95;43.38;;;;;;;5.89;100.00;102764.91;4989314;28;20034;-77
2022/03/26 03:01:16;;;;;;;181.40;45.53;;;;;;;5.93;100.00;102754.81;4981589;28;20100;-77
2022/03/26 03:03:41;;;;;;;163.80;42.85;;;;;;;5.89;100.00;102763.06;4990212;28;20478;-77
2022/03/26 03:06:07;;;;;;;173.13;43.92;;;;;;;5.96;100.00;102760.19;4979728;28;20080;-77
2022/03/26 03:08:33;;;;;;;186.98;46.38;;;;;;;5.90;100.00;102761.22;4983914;28;20029;-77
2022/03/26 03:10:59;;;;;;;173.10;44.35;;;;;;;5.89;100.00;102765.78;4992955;28;20030;-77
2022/03/26 03:13:24;;;;;;;164.18;47.03;;;;;;;5.81;100.00;102758.78;4985268;28;20026;-77
2022/03/26 03:15:50;;;;;;;186.27;45.70;;;;;;;5.78;100.00;102764.31;4977821;28;20030;-77
2022/03/26 03:18:17;;;;;;;171.88;45.70;;;;;;;5.74;100.00;102754.44;4974744;28;20057;-77
2022/03/26 03:20:43;;;;;;;186.68;45.95;;;;;;;5.76;100.00;102766.19;4986415;28;20461;-77
2022/03/26 03:23:08;;;;;;;194.88;48.28;;;;;;;5.78;100.00;102764.31;4988441;28;20084;-77
2022/03/26 03:25:34;;;;;;;174.75;45.83;;;;;;;5.78;100.00;102764.31;5002793;28;20038;-77
2022/03/26 03:28:00;;;;;;;188.50;46.65;;;;;;;5.80;100.00;102773.31;4989647;28;20037;-76
2022/03/26 03:30:26;;;;;;;185.98;48.33;;;;;;;5.75;100.00;102770.72;4988586;28;20128;-76
2022/03/26 03:32:52;;;;;;;182.90;47.05;;;;;;;5.69;100.00;102781.78;4994632;28;20107;-76
2022/03/26 03:35:18;;;;;;;193.35;46.95;;;;;;;5.67;100.00;102770.94;4988101;28;20037;-76
2022/03/26 03:37:43;;;;;;;201.95;48.13;;;;;;;5.58;100.00;102771.19;4998667;28;20030;-75
2022/03/26 03:40:13;;;;;;;197.77;49.83;;;;;;;5.63;100.00;102762.91;4988365;28;20053;-76
2022/03/26 03:42:39;;;;;;;185.07;49.03;;;;;;;5.67;100.00;102759.16;4977764;28;20396;-77
2022/03/26 03:45:05;;;;;;;193.50;49.75;;;;;;;5.75;100.00;102761.69;5003207;28;20034;-77
2022/03/26 03:47:30;;;;;;;206.05;50.53;;;;;;;5.74;100.00;102762.59;4991558;28;20034;-77
2022/03/26 03:49:56;;;;;;;205.50;47.75;;;;;;;5.74;100.00;102763.50;5000721;28;20034;-75
2022/03/26 03:52:22;;;;;;;202.50;52.58;;;;;;;5.67;100.00;102762.78;4997842;28;20378;-75
2022/03/26 03:54:47;;;;;;;207.90;50.47;;;;;;;5.39;100.00;102757.19;4998381;28;20076;-75
2022/03/26 03:57:13;;;;;;;196.80;49.60;;;;;;;5.50;100.00;102760.53;4982594;28;20141;-75
2022/03/26 03:59:41;;;;;;;199.02;49.13;;;;;;;5.58;100.00;102773.91;4995477;28;20038;-75
2022/03/26 04:02:09;;;;;;;212.48;52.25;;;;;;;5.53;100.00;102767.72;4991524;28;20042;-76
2022/03/26 04:04:39;;;;;;;212.95;48.28;;;;;;;5.57;100.00;102777.53;4996853;28;20092;-75
2022/03/26 04:07:05;;;;;;;204.30;50.97;;;;;;;5.46;100.00;102768.78;4995218;28;20176;-75
2022/03/26 04:09:30;;;;;;;205.23;52.88;;;;;;;5.53;100.00;102776.75;5001607;28;20035;-75
2022/03/26 04:11:56;;;;;;;201.13;50.95;;;;;;;5.49;100.00;102774.16;4980628;28;20069;-76
2022/03/26 04:14:21;;;;;;;225.75;51.47;;;;;;;5.44;100.00;102773.38;4995316;28;20042;-76
2022/03/26 04:16:47;;;;;;;200.88;49.47;;;;;;;5.47;100.00;102776.91;4990772;28;20038;-76
2022/03/26 04:19:12;;;;;;;201.02;49.70;;;;;;;5.47;100.00;102773.31;4977873;28;20497;-76
2022/03/26 04:21:38;;;;;;;220.95;50.20;;;;;;;5.39;100.00;102765.34;4984225;28;20113;-76
2022/03/26 04:24:04;;;;;;;235.50;54.38;;;;;;;5.36;100.00;102768.13;4975754;28;20054;-76
2022/03/26 04:26:30;;;;;;;225.27;50.90;;;;;;;5.29;100.00;102783.72;4994130;28;20026;-76
2022/03/26 04:28:55;;;;;;;220.45;50.92;;;;;;;5.30;100.00;102788.22;4967623;28;20037;-76
2022/03/26 04:31:21;;;;;;;219.75;51.90;;;;;;;5.40;100.00;102778.00;4984514;28;20088;-76
2022/03/26 04:33:46;;;;;;;221.70;49.33;;;;;;;5.31;100.00;102786.38;5003932;28;20033;-76
2022/03/26 04:36:11;;;;;;;214.02;49.63;;;;;;;5.23;100.00;102782.97;4983243;28;20034;-77
2022/03/26 04:38:37;;;;;;;217.07;49.13;;;;;;;5.13;100.00;102775.09;5005772;28;20030;-77
2022/03/26 04:41:03;;;;;;;217.02;51.80;;;;;;;5.26;100.00;102782.91;4998189;28;20045;-77
2022/03/26 04:43:28;;;;;;;204.13;51.00;;;;;;;5.28;100.00;102779.22;4979355;28;20030;-77
2022/03/26 04:45:54;;;;;;;234.88;50.70;;;;;;;5.21;100.00;102777.56;5006528;28;20037;-76
2022/03/26 04:48:19;;;;;;;215.05;52.97;;;;;;;5.21;100.00;102776.69;5005512;28;20080;-76
2022/03/26 04:50:44;;;;;;;205.65;52.70;;;;;;;5.17;100.00;102772.28;5004882;28;20401;-76
2022/03/26 04:53:10;;;;;;;194.13;50.92;;;;;;;5.20;100.00;102777.63;4988779;28;20036;-76
2022/03/26 04:55:35;;;;;;;219.95;48.70;;;;;;;5.15;100.00;102773.22;4987311;28;20027;-76
2022/03/26 04:58:01;;;;;;;201.15;50.85;;;;;;;5.04;100.00;102774.41;4999716;28;20122;-76
2022/03/26 05:00:27;;;;;;;207.27;50.83;;;;;;;4.97;100.00;102781.81;4987359;28;20031;-76
2022/03/26 05:02:52;;;;;;;231.25;53.50;;;;;;;4.99;100.00;102771.81;5006783;28;20029;-76
2022/03/26 05:05:18;;;;;;;187.52;48.13;;;;;;;5.02;100.00;102773.53;4994988;28;20389;-76
2022/03/26 05:07:46;;;;;;;190.60;47.97;;;;;;;4.95;100.00;102773.72;5004768;28;20042;-75
2022/03/26 05:10:16;;;;;;;211.48;47.08;;;;;;;5.01;100.00;102769.94;4988640;28;20073;-76
2022/03/26 05:12:46;;;;;;;194.40;49.78;;;;;;;5.00;100.00;102776.31;5003977;28;20465;-76
2022/03/26 05:15:12;;;;;;;190.85;48.10;;;;;;;5.03;100.00;102769.91;4999256;28;20504;-76
2022/03/26 05:17:38;;;;;;;177.18;45.70;;;;;;;5.04;100.00;102782.56;4994345;28;20046;-76
2022/03/26 05:20:05;;;;;;;169.70;46.17;;;;;;;4.92;100.00;102778.31;4999987;28;20394;-76
2022/03/26 05:22:31;;;;;;;174.85;46.50;;;;;;;4.94;100.00;102782.78;5011112;28;20056;-76
2022/03/26 05:24:57;;;;;;;187.00;47.50;;;;;;;4.97;100.00;102784.53;4968481;28;20030;-77
2022/03/26 05:27:22;;;;;;;177.75;44.00;;;;;;;4.92;100.00;102794.59;4982829;28;20023;-75
2022/03/26 05:29:49;;;;;;;176.40;47.10;;;;;;;5.00;100.00;102792.63;4991988;28;20156;-76
2022/03/26 05:32:18;;;;;;;168.18;44.10;;;;;;;4.95;100.00;102803.56;4993486;28;20111;-77
2022/03/26 05:34:46;;;;;;;170.98;43.08;;;;;;;4.92;100.00;102803.66;5003986;28;20037;-77
2022/03/26 05:37:12;;;;;;;149.13;41.88;;;;;;;4.85;100.00;102795.69;4984263;28;20397;-75
2022/03/26 05:39:38;;;;;;;148.30;42.80;;;;;;;4.95;100.00;102805.38;4978152;28;20163;-76
2022/03/26 05:42:04;;;;;;;139.32;42.08;;;;;;;4.90;100.00;102796.47;4988786;28;20057;-77
2022/03/26 05:44:30;;;;;;;144.68;39.58;;;;;;;4.94;100.00;102809.91;5007184;28;20058;-76
2022/03/26 05:46:55;;;;;;;148.35;41.33;;;;;;;4.94;100.00;102811.75;4986346;28;20026;-76
2022/03/26 05:49:21;;;;;;;132.95;38.03;;;;;;;4.86;100.00;102809.22;5005312;28;20035;-76
2022/03/26 05:51:47;;;;;;;137.23;38.78;;;;;;;4.92;100.00;102813.59;4989892;28;20529;-77
2022/03/26 05:54:14;;;;;;;131.20;38.42;;;;;;;4.86;100.00;102811.94;5001301;28;20026;-76
2022/03/26 05:56:39;;;;;;;117.20;35.25;;;;;;;4.99;100.00;102812.53;5003661;28;20101;-77
2022/03/26 05:59:09;;;;;;;117.57;36.03;;;;;;;5.05;100.00;102814.19;4984225;28;20082;-75
2022/03/26 06:01:35;;;;;;;112.65;36.53;;;;;;;5.04;100.00;102823.28;4977392;28;20443;-76
2022/03/26 06:04:02;;;;;;;97.95;34.53;;;;;;;5.00;100.00;102827.91;5008247;28;20030;-76
2022/03/26 06:06:27;;;;;;;105.15;33.05;;;;;;;5.03;100.00;102838.66;4980893;28;20037;-77
2022/03/26 06:08:53;;;;;;;95.05;31.58;;;;;;;5.05;100.00;102836.81;5005816;28;20567;-76
2022/03/26 06:11:18;;;;;;;96.90;33.17;;;;;;;5.15;100.00;102834.78;4978486;28;20046;-76
2022/03/26 06:13:44;;;;;;;92.60;30.52;;;;;;;5.15;100.00;102827.53;4992049;28;20494;-76
2022/03/26 06:16:10;;;;;;;94.00;30.05;;;;;;;5.23;100.00;102835.47;4988185;28;20050;-77
2022/03/26 06:18:36;;;;;;;83.22;29.17;;;;;;;5.28;100.00;102828.13;5010117;28;20516;-76
2022/03/26 06:21:05;;;;;;;79.18;29.08;;;;;;;5.41;100.00;102823.28;4993773;28;20034;-76
2022/03/26 06:23:31;;;;;;;76.32;27.75;;;;;;;5.56;100.00;102829.22;4989454;28;20029;-76
2022/03/26 06:25:56;;;;;;;77.57;27.65;;;;;;;5.63;100.00;102822.69;4999319;28;20038;-76
2022/03/26 06:28:22;;;;;;;70.28;28.77;;;;;;;5.88;100.00;102839.22;4988439;28;20448;-76
2022/03/26 06:30:48;;;;;;;74.60;24.98;;;;;;;6.06;100.00;102838.75;4986720;28;20045;-77
2022/03/26 06:33:15;;;;;;;59.63;25.08;;;;;;;6.10;100.00;102839.56;4983166;28;20042;-77
2022/03/26 06:35:41;;;;;;;65.10;25.52;;;;;;;6.19;100.00;102838.41;4987900;28;20389;-76
2022/03/26 06:38:07;;;;;;;62.92;25.98;;;;;;;6.39;100.00;102844.16;5007330;28;20089;-77
2022/03/26 06:40:32;;;;;;;67.32;25.67;;;;;;;6.62;100.00;102848.94;4968758;28;20041;-77
2022/03/26 06:42:58;;;;;;;66.70;26.65;;;;;;;6.68;100.00;102846.94;5002400;28;20034;-77
2022/03/26 06:45:24;;;;;;;57.38;23.50;;;;;;;6.81;100.00;102854.69;5006381;28;20038;-77
2022/03/26 06:47:49;;;;;;;59.22;22.50;;;;;;;7.00;100.00;102862.25;4981993;28;20394;-77
2022/03/26 06:50:15;;;;;;;53.47;24.10;;;;;;;7.31;100.00;102856.75;4985166;28;20030;-77
2022/03/26 06:52:41;;;;;;;61.65;23.67;;;;;;;7.08;100.00;102848.41;4986759;28;21721;-77
2022/03/26 06:55:07;;;;;;;54.13;21.75;;;;;;;7.48;100.00;102856.16;4969459;28;20038;-77
2022/03/26 06:57:33;;;;;;;48.28;21.08;;;;;;;7.77;100.00;102853.38;4985717;28;20034;-77
2022/03/26 06:59:58;;;;;;;57.42;24.33;;;;;;;7.93;100.00;102857.34;5003714;28;20375;-76
2022/03/26 07:02:24;;;;;;;56.83;23.40;;;;;;;7.84;100.00;102858.56;4979887;28;20051;-77
2022/03/26 07:04:49;;;;;;;46.97;20.75;;;;;;;8.11;100.00;102863.97;5006240;28;20096;-77
2022/03/26 07:07:15;;;;;;;53.55;22.60;;;;;;;8.29;100.00;102862.41;4990137;28;20038;-77
2022/03/26 07:09:41;;;;;;;51.65;21.77;;;;;;;8.41;100.00;102861.03;5006374;28;20040;-77
2022/03/26 07:12:07;;;;;;;55.05;22.70;;;;;;;8.55;100.00;102866.03;4998299;28;20037;-76
2022/03/26 07:14:33;;;;;;;49.10;22.45;;;;;;;8.48;100.00;102870.84;5005288;28;20084;-76
2022/03/26 07:16:58;;;;;;;56.60;22.35;;;;;;;8.86;100.00;102868.47;4991376;28;20061;-77
2022/03/26 07:19:24;;;;;;;57.22;23.50;;;;;;;9.07;100.00;102866.72;5009862;28;20065;-76
2022/03/26 07:21:49;;;;;;;52.75;23.42;;;;;;;9.20;100.00;102867.13;4979275;28;20486;-76
2022/03/26 07:24:14;;;;;;;46.95;21.30;;;;;;;9.31;100.00;102866.66;4987273;28;20128;-76
2022/03/26 07:26:40;;;;;;;53.65;22.58;;;;;;;9.50;99.40;102862.19;4983501;28;20042;-77
2022/03/26 07:29:05;;;;;;;55.35;24.23;;;;;;;9.65;99.21;102868.88;5004328;28;20034;-76
2022/03/26 07:31:31;;;;;;;52.13;22.77;;;;;;;9.94;96.83;102861.25;5009369;28;20053;-77
2022/03/26 07:33:56;;;;;;;53.47;23.15;;;;;;;10.03;94.89;102871.75;4976555;28;20026;-76
2022/03/26 07:36:22;;;;;;;56.35;24.17;;;;;;;10.16;93.96;102865.75;5008521;28;20401;-77
2022/03/26 07:38:47;;;;;;;54.58;23.15;;;;;;;10.42;92.59;102867.34;5005240;28;20109;-76
2022/03/26 07:41:13;;;;;;;54.75;22.75;;;;;;;10.40;92.33;102858.31;4991569;28;20038;-76
2022/03/26 07:43:38;;;;;;;58.58;24.30;;;;;;;10.46;90.35;102868.97;4967597;28;20045;-76
2022/03/26 07:46:04;;;;;;;71.45;23.80;;;;;;;10.42;92.18;102872.81;5002929;28;20049;-76
2022/03/26 07:48:29;;;;;;;57.70;24.95;;;;;;;11.07;90.29;102875.25;4979329;28;20485;-76
2022/03/26 07:50:55;;;;;;;52.65;24.02;;;;;;;11.14;87.14;102885.84;4991024;28;20040;-75
2022/03/26 07:53:22;;;;;;;50.67;22.65;;;;;;;11.38;86.51;102880.13;4968941;28;20050;-74
2022/03/26 07:55:48;;;;;;;51.83;23.02;;;;;;;11.34;88.11;102879.38;4992512;28;20441;-77
2022/03/26 07:58:14;;;;;;;51.65;24.13;;;;;;;11.51;85.96;102880.38;4979558;28;20053;-77
2022/03/26 08:00:39;;;;;;;51.85;22.63;;;;;;;11.99;84.19;102889.84;5007783;28;20076;-75
2022/03/26 08:03:05;;;;;;;57.05;22.90;;;;;;;12.32;80.99;102886.28;5005583;28;20036;-76
2022/03/26 08:05:31;;;;;;;62.22;23.25;;;;;;;12.24;81.71;102881.19;4991169;28;20046;-76
2022/03/26 08:07:56;;;;;;;54.50;22.02;;;;;;;12.68;78.17;102877.00;4996250;28;20033;-76
2022/03/26 08:10:22;;;;;;;54.28;22.65;;;;;;;12.72;77.87;102886.81;4999611;28;20030;-76
2022/03/26 08:12:48;;;;;;;50.72;24.45;;;;;;;13.33;77.38;102882.50;4986508;28;20453;-76
2022/03/26 08:15:13;;;;;;;51.83;23.90;;;;;;;13.24;75.74;102883.00;4993387;28;20106;-76
2022/03/26 08:17:39;;;;;;;57.47;22.40;;;;;;;13.83;74.67;102876.81;4992845;28;20050;-76
2022/03/26 08:20:07;;;;;;;52.88;23.35;;;;;;;13.73;74.25;102885.63;4990244;28;20481;-76
2022/03/26 08:22:34;;;;;;;64.07;24.77;;;;;;;14.00;73.58;102886.81;5004533;28;20037;-77
2022/03/26 08:25:00;;;;;;;55.72;24.25;;;;;;;14.56;71.44;102881.50;4986091;28;20050;-76
2022/03/26 08:27:26;;;;;;;54.88;23.23;;;;;;;14.76;69.36;102874.72;4997474;28;20026;-76
2022/03/26 08:29:52;;;;;;;58.70;24.83;;;;;;;14.70;71.04;102885.16;5002498;28;20031;-76
2022/03/26 08:32:19;;;;;;;55.97;23.00;;;;;;;14.91;68.64;102883.91;5005656;28;20030;-77
2022/03/26 08:34:44;;;;;;;44.28;23.90;;;;;;;15.04;70.27;102891.25;4993349;28;20449;-76
2022/03/26 08:37:10;;;;;;;53.38;22.63;;;;;;;15.43;67.00;102883.22;4999151;28;20110;-76
2022/03/26 08:39:36;;;;;;;55.25;24.95;;;;;;;15.28;67.29;102886.97;4976503;28;20042;-75
2022/03/26 08:42:01;;;;;;;52.33;24.60;;;;;;;14.86;71.09;102895.22;4980662;28;20034;-76
2022/03/26 08:44:27;;;;;;;51.80;23.85;;;;;;;16.09;66.12;102891.63;4995273;28;20432;-77
2022/03/26 08:46:52;;;;;;;51.78;23.88;;;;;;;16.42;64.03;102898.53;4994357;28;20058;-76
2022/03/26 08:49:18;;;;;;;55.80;23.55;;;;;;;16.45;64.31;102895.56;4977869;28;20469;-77
2022/03/26 08:51:43;;;;;;;48.58;22.98;;;;;;;16.70;63.43;102886.38;4976045;28;20394;-76
2022/03/26 08:54:09;;;;;;;47.25;23.50;;;;;;;16.81;61.97;102880.94;4990451;28;20033;-76
2022/03/26 08:56:34;;;;;;;51.38;23.15;;;;;;;16.82;63.76;102898.41;4994707;28;20033;-76
2022/03/26 08:59:00;;;;;;;49.75;23.05;;;;;;;16.30;64.95;102889.25;4976644;28;20064;-77
2022/03/26 09:01:26;;;;;;;54.33;23.17;;;;;;;17.50;60.33;102888.78;4994622;28;20038;-77
2022/03/26 09:03:51;;;;;;;51.60;22.65;;;;;;;16.96;61.98;102897.44;4975919;28;20087;-76
2022/03/26 09:06:17;;;;;;;42.97;21.48;;;;;;;17.93;58.58;102896.56;4993121;28;20496;-76
2022/03/26 09:08:43;;;;;;;49.67;21.83;;;;;;;17.96;58.92;102890.78;4994410;28;20390;-77
2022/03/26 09:11:08;;;;;;;43.00;20.73;;;;;;;17.55;60.19;102897.59;4975237;28;20118;-77
2022/03/26 09:13:34;;;;;;;47.72;20.73;;;;;;;18.29;58.51;102893.81;4990533;28;20072;-76
2022/03/26 09:16:00;;;;;;;43.25;19.85;;;;;;;17.98;57.12;102896.22;5006986;28;20413;-76
2022/03/26 09:18:27;;;;;;;42.55;20.35;;;;;;;17.78;58.59;102904.16;4993275;28;20401;-76
2022/03/26 09:20:53;;;;;;;43.88;20.42;;;;;;;17.52;59.56;102897.84;5007656;28;20034;-77
2022/03/26 09:23:18;;;;;;;51.97;19.98;;;;;;;17.99;58.32;102900.75;4989040;28;20107;-75
2022/03/26 09:25:44;;;;;;;44.30;20.35;;;;;;;17.93;57.62;102899.34;4988391;28;20034;-77
2022/03/26 09:28:10;;;;;;;42.92;19.73;;;;;;;18.44;57.19;102906.44;4975957;28;20042;-77
2022/03/26 09:30:36;;;;;;;44.60;20.08;;;;;;;18.65;55.49;102894.63;5005099;28;20044;-77
2022/03/26 09:33:02;;;;;;;39.72;19.33;;;;;;;18.54;55.44;102899.16;5010584;28;20034;-77
2022/03/26 09:35:28;;;;;;;40.65;20.35;;;;;;;18.42;56.07;102899.25;5011846;28;20088;-77
2022/03/26 09:37:53;;;;;;;42.85;19.05;;;;;;;18.28;56.62;102890.16;5001496;28;20046;-76
2022/03/26 09:40:22;;;;;;;37.40;19.42;;;;;;;18.63;55.12;102899.41;4958353;28;20056;-76
2022/03/26 09:42:49;;;;;;;45.03;19.48;;;;;;;18.85;52.72;102899.44;4963748;28;20085;-76
2022/03/26 09:45:15;;;;;;;43.42;20.17;;;;;;;18.22;55.38;102896.19;5001285;28;20080;-77
2022/03/26 09:47:41;;;;;;;42.67;20.35;;;;;;;18.57;54.35;102897.13;5000171;28;20022;-77
2022/03/26 09:50:08;;;;;;;41.80;20.23;;;;;;;19.15;53.54;102899.81;4994360;28;20088;-77
2022/03/26 09:52:35;;;;;;;39.50;19.15;;;;;;;19.20;52.57;102894.75;4989278;28;20109;-77
2022/03/26 09:55:00;;;;;;;49.97;19.27;;;;;;;18.97;51.99;102905.00;4996129;28;20042;-77
2022/03/26 09:57:26;;;;;;;45.50;21.23;;;;;;;18.65;56.15;102895.50;4995379;28;20394;-77
2022/03/26 09:59:52;;;;;;;47.42;20.58;;;;;;;18.88;53.21;102890.88;4990170;28;20125;-77
2022/03/26 10:02:17;;;;;;;42.53;20.63;;;;;;;19.29;51.37;102892.09;5006689;28;20030;-77
2022/03/26 10:04:44;;;;;;;43.58;21.80;;;;;;;19.43;49.99;102885.41;4988921;28;20038;-77
2022/03/26 10:07:10;;;;;;;53.47;23.08;;;;;;;19.20;50.55;102892.88;4996397;28;20442;-77
2022/03/26 10:09:45;;;;;;;47.70;20.77;;;;;;;19.69;45.78;102901.72;5010433;28;20033;-77
2022/03/26 10:12:15;;;;;;;50.58;22.45;;;;;;;19.56;47.01;102895.44;4981251;28;20026;-77
2022/03/26 10:15:00;;;;;;;48.63;22.35;;;;;;;18.94;50.34;102891.38;4988897;28;20041;-77
2022/03/26 10:17:33;;;;;;;54.85;21.95;;;;;;;19.61;47.44;102888.50;5005376;28;20085;-77
2022/03/26 10:20:12;;;;;;;45.83;19.38;;;;;;;19.46;47.80;102892.56;4999540;28;20054;-77
2022/03/26 10:22:50;;;;;;;45.20;21.20;;;;;;;19.19;48.40;102890.25;4983782;28;20039;-77
2022/03/26 10:25:18;;;;;;;52.90;22.05;;;;;;;19.49;48.21;102891.44;4979251;28;20030;-77
2022/03/26 10:27:47;;;;;;;54.20;23.85;;;;;;;19.13;48.59;102897.16;5009938;28;20034;-77
2022/03/26 10:33:22;;;;;;;31.63;16.33;;;;;;;18.97;49.29;102886.47;4997889;28;20048;-77
2022/03/26 10:35:56;;;;;;;40.88;19.98;;;;;;;19.17;47.95;102887.59;4997566;28;20037;-77
2022/03/26 10:38:40;;;;;;;39.17;16.75;;;;;;;18.96;49.30;102881.91;4995571;28;20412;-77
2022/03/26 10:41:07;;;;;;;40.17;18.80;;;;;;;19.25;50.05;102885.06;4991381;28;20070;-77
2022/03/26 10:43:34;;;;;;;43.72;21.23;;;;;;;19.05;52.07;102883.03;4984981;28;20492;-77
2022/03/26 10:46:01;;;;;;;32.40;17.13;;;;;;;19.09;51.59;102890.13;5006211;28;20501;-77
2022/03/26 10:48:32;;;;;;;37.78;14.52;;;;;;;19.17;46.66;102879.25;5005788;28;20385;-77
2022/03/26 10:51:09;;;;;;;31.02;14.55;;;;;;;19.23;48.59;102881.53;4994201;28;20481;-77
2022/03/26 10:53:40;;;;;;;28.23;14.65;;;;;;;19.37;44.50;102885.03;4994129;28;20050;-78
2022/03/26 10:56:08;;;;;;;26.15;12.05;;;;;;;18.76;46.10;102875.22;4997198;28;20042;-78
2022/03/26 10:58:35;;;;;;;33.58;12.70;;;;;;;19.09;45.03;102879.88;4979271;28;20117;-77
2022/03/26 11:01:01;;;;;;;34.78;11.95;;;;;;;19.08;43.38;102874.47;5006427;28;20037;-77
2022/03/26 11:03:27;;;;;;;39.05;12.15;;;;;;;19.21;42.31;102872.41;4997064;28;20044;-77
2022/03/26 11:05:54;;;;;;;24.65;11.70;;;;;;;19.26;43.43;102875.69;5013237;28;20032;-78